sensor_id;sensor_type;location;lat;lon;timestamp;temperature;humidity
16040;DHT22;8124;48.634;8.120;2023-02-19T00:03:50;13.20;99.90
16040;DHT22;8124;48.634;8.120;2023-02-19T00:08:54;13.10;99.90
16040;DHT22;8124;48.634;8.120;2023-02-19T00:14:00;13.20;99.90
16040;DHT22;8124;48.634;8.120;2023-02-19T00:19:05;13.20;99.90
16040;DHT22;8124;48.634;8.120;2023-02-19T00:24:10;13.30;99.90
16040;DHT22;8124;48.634;8.120;2023-02-19T00:29:18;13.30;99.90
16040;DHT22;8124;48.634;8.120;2023-02-19T00:34:22;13.20;99.90
16040;DHT22;8124;48.634;8.120;2023-02-19T00:39:24;13.20;99.90
16040;DHT22;8124;48.634;8.120;2023-02-19T00:44:29;13.30;99.90
16040;DHT22;8124;48.634;8.120;2023-02-19T00:49:32;13.30;99.90
16040;DHT22;8124;48.634;8.120;2023-02-19T00:54:34;13.30;99.90
16040;DHT22;8124;48.634;8.120;2023-02-19T00:59:39;13.30;99.90
16040;DHT22;8124;48.634;8.120;2023-02-19T01:04:42;13.20;99.90
16040;DHT22;8124;48.634;8.120;2023-02-19T01:10:01;13.30;99.90
16040;DHT22;8124;48.634;8.120;2023-02-19T01:15:06;13.30;99.90
16040;DHT22;8124;48.634;8.120;2023-02-19T01:20:09;13.30;99.90
16040;DHT22;8124;48.634;8.120;2023-02-19T01:25:12;13.30;99.90
16040;DHT22;8124;48.634;8.120;2023-02-19T01:30:17;13.20;99.90
16040;DHT22;8124;48.634;8.120;2023-02-19T01:35:21;13.20;99.90
16040;DHT22;8124;48.634;8.120;2023-02-19T01:40:25;13.10;99.90
16040;DHT22;8124;48.634;8.120;2023-02-19T01:45:30;13.10;99.90
16040;DHT22;8124;48.634;8.120;2023-02-19T01:50:37;13.00;99.90
16040;DHT22;8124;48.634;8.120;2023-02-19T01:55:44;13.00;99.90
16040;DHT22;8124;48.634;8.120;2023-02-19T02:00:49;13.00;99.90
16040;DHT22;8124;48.634;8.120;2023-02-19T02:05:58;13.10;99.90
16040;DHT22;8124;48.634;8.120;2023-02-19T02:11:03;12.90;99.90
16040;DHT22;8124;48.634;8.120;2023-02-19T02:16:19;12.80;99.90
16040;DHT22;8124;48.634;8.120;2023-02-19T02:21:42;12.70;99.90
16040;DHT22;8124;48.634;8.120;2023-02-19T02:26:57;12.80;99.90
16040;DHT22;8124;48.634;8.120;2023-02-19T02:32:11;12.80;99.90
16040;DHT22;8124;48.634;8.120;2023-02-19T02:37:15;12.80;99.90
16040;DHT22;8124;48.634;8.120;2023-02-19T02:42:18;12.70;99.90
16040;DHT22;8124;48.634;8.120;2023-02-19T02:47:42;12.50;99.90
16040;DHT22;8124;48.634;8.120;2023-02-19T02:52:51;12.50;99.90
16040;DHT22;8124;48.634;8.120;2023-02-19T02:58:13;12.60;99.90
16040;DHT22;8124;48.634;8.120;2023-02-19T03:03:22;12.50;99.90
16040;DHT22;8124;48.634;8.120;2023-02-19T03:08:28;12.50;99.90
16040;DHT22;8124;48.634;8.120;2023-02-19T03:13:34;12.50;99.90
16040;DHT22;8124;48.634;8.120;2023-02-19T03:18:58;12.40;99.90
16040;DHT22;8124;48.634;8.120;2023-02-19T03:24:26;12.40;99.90
16040;DHT22;8124;48.634;8.120;2023-02-19T03:29:49;12.40;99.90
16040;DHT22;8124;48.634;8.120;2023-02-19T03:35:00;12.40;99.90
16040;DHT22;8124;48.634;8.120;2023-02-19T03:40:06;12.30;99.90
16040;DHT22;8124;48.634;8.120;2023-02-19T03:45:25;12.30;99.90
16040;DHT22;8124;48.634;8.120;2023-02-19T03:50:37;12.30;99.90
16040;DHT22;8124;48.634;8.120;2023-02-19T03:55:53;12.30;99.90
16040;DHT22;8124;48.634;8.120;2023-02-19T04:01:04;12.40;99.90
16040;DHT22;8124;48.634;8.120;2023-02-19T04:06:13;12.40;99.90
16040;DHT22;8124;48.634;8.120;2023-02-19T04:11:19;12.30;99.90
16040;DHT22;8124;48.634;8.120;2023-02-19T04:16:26;12.30;99.90
16040;DHT22;8124;48.634;8.120;2023-02-19T04:21:32;12.30;99.90
16040;DHT22;8124;48.634;8.120;2023-02-19T04:26:36;12.40;99.90
16040;DHT22;8124;48.634;8.120;2023-02-19T04:31:39;12.40;99.90
16040;DHT22;8124;48.634;8.120;2023-02-19T04:36:43;12.30;99.90
16040;DHT22;8124;48.634;8.120;2023-02-19T04:41:46;12.10;99.90
16040;DHT22;8124;48.634;8.120;2023-02-19T04:46:49;12.20;99.90
16040;DHT22;8124;48.634;8.120;2023-02-19T04:51:53;12.10;99.90
16040;DHT22;8124;48.634;8.120;2023-02-19T04:56:56;12.20;99.90
16040;DHT22;8124;48.634;8.120;2023-02-19T05:01:59;12.10;99.90
16040;DHT22;8124;48.634;8.120;2023-02-19T05:07:03;12.10;99.90
16040;DHT22;8124;48.634;8.120;2023-02-19T05:12:06;12.00;99.90
16040;DHT22;8124;48.634;8.120;2023-02-19T05:17:09;11.90;99.90
16040;DHT22;8124;48.634;8.120;2023-02-19T05:22:13;12.00;99.90
16040;DHT22;8124;48.634;8.120;2023-02-19T05:27:16;11.90;99.90
16040;DHT22;8124;48.634;8.120;2023-02-19T05:32:19;11.90;99.90
16040;DHT22;8124;48.634;8.120;2023-02-19T05:37:23;11.90;99.90
16040;DHT22;8124;48.634;8.120;2023-02-19T05:42:26;11.90;99.90
16040;DHT22;8124;48.634;8.120;2023-02-19T05:47:29;11.90;99.90
16040;DHT22;8124;48.634;8.120;2023-02-19T05:52:33;11.90;99.90
16040;DHT22;8124;48.634;8.120;2023-02-19T05:57:39;11.90;99.90
16040;DHT22;8124;48.634;8.120;2023-02-19T06:02:44;11.80;99.90
16040;DHT22;8124;48.634;8.120;2023-02-19T06:07:49;11.80;99.90
16040;DHT22;8124;48.634;8.120;2023-02-19T06:12:52;11.90;99.90
16040;DHT22;8124;48.634;8.120;2023-02-19T06:17:55;11.70;99.90
16040;DHT22;8124;48.634;8.120;2023-02-19T06:22:59;11.70;99.90
16040;DHT22;8124;48.634;8.120;2023-02-19T06:28:02;11.60;99.90
16040;DHT22;8124;48.634;8.120;2023-02-19T06:33:05;11.60;99.90
16040;DHT22;8124;48.634;8.120;2023-02-19T06:38:10;11.70;99.90
16040;DHT22;8124;48.634;8.120;2023-02-19T06:43:12;11.70;99.90
16040;DHT22;8124;48.634;8.120;2023-02-19T06:48:15;11.60;99.90
16040;DHT22;8124;48.634;8.120;2023-02-19T06:53:20;11.60;99.90
16040;DHT22;8124;48.634;8.120;2023-02-19T06:58:23;11.70;99.90
16040;DHT22;8124;48.634;8.120;2023-02-19T07:03:26;11.60;99.90
16040;DHT22;8124;48.634;8.120;2023-02-19T07:08:30;11.70;99.90
16040;DHT22;8124;48.634;8.120;2023-02-19T07:13:43;11.80;99.90
16040;DHT22;8124;48.634;8.120;2023-02-19T07:18:46;11.80;99.90
16040;DHT22;8124;48.634;8.120;2023-02-19T07:23:50;11.70;99.90
16040;DHT22;8124;48.634;8.120;2023-02-19T07:28:53;11.60;99.90
16040;DHT22;8124;48.634;8.120;2023-02-19T07:33:56;11.60;99.90
16040;DHT22;8124;48.634;8.120;2023-02-19T07:39:00;11.50;99.90
16040;DHT22;8124;48.634;8.120;2023-02-19T07:44:04;11.50;99.90
16040;DHT22;8124;48.634;8.120;2023-02-19T07:49:06;11.50;99.90
16040;DHT22;8124;48.634;8.120;2023-02-19T07:54:11;11.50;99.90
16040;DHT22;8124;48.634;8.120;2023-02-19T07:59:14;11.60;99.90
16040;DHT22;8124;48.634;8.120;2023-02-19T08:04:20;11.60;99.90
16040;DHT22;8124;48.634;8.120;2023-02-19T08:09:24;11.50;99.90
16040;DHT22;8124;48.634;8.120;2023-02-19T08:14:27;11.50;99.90
16040;DHT22;8124;48.634;8.120;2023-02-19T08:19:30;11.60;99.90
16040;DHT22;8124;48.634;8.120;2023-02-19T08:24:34;11.60;99.90
16040;DHT22;8124;48.634;8.120;2023-02-19T08:29:41;11.70;99.90
16040;DHT22;8124;48.634;8.120;2023-02-19T08:34:44;11.70;99.90
16040;DHT22;8124;48.634;8.120;2023-02-19T08:39:57;11.70;99.90
16040;DHT22;8124;48.634;8.120;2023-02-19T08:45:08;11.70;99.90
16040;DHT22;8124;48.634;8.120;2023-02-19T08:50:36;11.60;99.90
16040;DHT22;8124;48.634;8.120;2023-02-19T08:55:52;11.70;99.90
16040;DHT22;8124;48.634;8.120;2023-02-19T09:02:00;11.60;99.90
16040;DHT22;8124;48.634;8.120;2023-02-19T09:07:17;11.70;99.90
16040;DHT22;8124;48.634;8.120;2023-02-19T09:12:25;11.70;99.90
16040;DHT22;8124;48.634;8.120;2023-02-19T09:17:28;11.80;99.90
16040;DHT22;8124;48.634;8.120;2023-02-19T09:22:31;11.90;99.90
16040;DHT22;8124;48.634;8.120;2023-02-19T09:27:35;11.90;99.90
16040;DHT22;8124;48.634;8.120;2023-02-19T09:32:38;12.00;99.90
16040;DHT22;8124;48.634;8.120;2023-02-19T09:37:41;11.90;99.90
16040;DHT22;8124;48.634;8.120;2023-02-19T09:42:46;11.90;99.90
16040;DHT22;8124;48.634;8.120;2023-02-19T09:47:52;12.00;99.90
16040;DHT22;8124;48.634;8.120;2023-02-19T09:52:57;12.10;99.90
16040;DHT22;8124;48.634;8.120;2023-02-19T09:58:16;12.00;99.90
16040;DHT22;8124;48.634;8.120;2023-02-19T10:03:22;12.20;99.90
16040;DHT22;8124;48.634;8.120;2023-02-19T10:08:33;12.20;99.90
16040;DHT22;8124;48.634;8.120;2023-02-19T10:13:41;12.40;99.90
16040;DHT22;8124;48.634;8.120;2023-02-19T10:18:45;12.20;99.90
16040;DHT22;8124;48.634;8.120;2023-02-19T10:23:50;12.30;99.90
16040;DHT22;8124;48.634;8.120;2023-02-19T10:28:56;12.40;99.90
16040;DHT22;8124;48.634;8.120;2023-02-19T10:34:00;12.20;99.90
16040;DHT22;8124;48.634;8.120;2023-02-19T10:39:29;12.30;99.90
16040;DHT22;8124;48.634;8.120;2023-02-19T10:44:41;12.40;99.90
16040;DHT22;8124;48.634;8.120;2023-02-19T10:49:46;12.40;99.90
16040;DHT22;8124;48.634;8.120;2023-02-19T10:54:51;12.30;99.90
16040;DHT22;8124;48.634;8.120;2023-02-19T10:59:58;12.30;99.90
16040;DHT22;8124;48.634;8.120;2023-02-19T11:05:15;12.30;99.90
16040;DHT22;8124;48.634;8.120;2023-02-19T11:10:23;12.40;99.90
16040;DHT22;8124;48.634;8.120;2023-02-19T11:15:30;12.40;99.90
16040;DHT22;8124;48.634;8.120;2023-02-19T11:20:33;12.40;99.90
16040;DHT22;8124;48.634;8.120;2023-02-19T11:25:43;12.40;99.90
16040;DHT22;8124;48.634;8.120;2023-02-19T11:30:48;12.30;99.90
16040;DHT22;8124;48.634;8.120;2023-02-19T11:35:56;12.40;99.90
16040;DHT22;8124;48.634;8.120;2023-02-19T11:41:07;12.30;99.90
16040;DHT22;8124;48.634;8.120;2023-02-19T11:46:21;12.40;99.90
16040;DHT22;8124;48.634;8.120;2023-02-19T11:51:38;12.50;99.90
16040;DHT22;8124;48.634;8.120;2023-02-19T11:56:56;12.50;99.90
16040;DHT22;8124;48.634;8.120;2023-02-19T12:02:42;12.60;99.90
16040;DHT22;8124;48.634;8.120;2023-02-19T12:08:04;12.70;99.90
16040;DHT22;8124;48.634;8.120;2023-02-19T12:13:18;12.70;99.90
16040;DHT22;8124;48.634;8.120;2023-02-19T12:18:41;12.60;99.90
16040;DHT22;8124;48.634;8.120;2023-02-19T12:24:04;12.50;99.90
16040;DHT22;8124;48.634;8.120;2023-02-19T12:29:23;12.60;99.90
16040;DHT22;8124;48.634;8.120;2023-02-19T12:34:42;12.60;99.90
16040;DHT22;8124;48.634;8.120;2023-02-19T12:39:56;12.70;99.90
16040;DHT22;8124;48.634;8.120;2023-02-19T12:45:06;12.70;99.90
16040;DHT22;8124;48.634;8.120;2023-02-19T12:50:19;12.60;99.90
16040;DHT22;8124;48.634;8.120;2023-02-19T12:55:26;12.70;99.90
16040;DHT22;8124;48.634;8.120;2023-02-19T13:00:34;12.80;99.90
16040;DHT22;8124;48.634;8.120;2023-02-19T13:05:45;12.70;99.90
16040;DHT22;8124;48.634;8.120;2023-02-19T13:10:55;12.60;99.90
16040;DHT22;8124;48.634;8.120;2023-02-19T13:16:02;12.70;99.90
16040;DHT22;8124;48.634;8.120;2023-02-19T13:21:13;12.80;99.90
16040;DHT22;8124;48.634;8.120;2023-02-19T13:26:47;12.80;99.90
16040;DHT22;8124;48.634;8.120;2023-02-19T13:32:14;12.80;99.90
16040;DHT22;8124;48.634;8.120;2023-02-19T13:37:22;12.70;99.90
16040;DHT22;8124;48.634;8.120;2023-02-19T13:42:27;12.70;99.90
16040;DHT22;8124;48.634;8.120;2023-02-19T13:47:58;12.60;99.90
16040;DHT22;8124;48.634;8.120;2023-02-19T13:58:52;12.70;99.90
16040;DHT22;8124;48.634;8.120;2023-02-19T14:04:07;12.80;99.90
16040;DHT22;8124;48.634;8.120;2023-02-19T14:09:44;12.70;99.90
16040;DHT22;8124;48.634;8.120;2023-02-19T14:14:48;12.90;99.90
16040;DHT22;8124;48.634;8.120;2023-02-19T14:19:59;12.70;99.90
16040;DHT22;8124;48.634;8.120;2023-02-19T14:25:13;12.50;99.90
16040;DHT22;8124;48.634;8.120;2023-02-19T14:30:21;12.60;99.90
16040;DHT22;8124;48.634;8.120;2023-02-19T14:35:30;12.70;99.90
16040;DHT22;8124;48.634;8.120;2023-02-19T14:40:38;12.70;99.90
16040;DHT22;8124;48.634;8.120;2023-02-19T14:45:45;12.90;99.90
16040;DHT22;8124;48.634;8.120;2023-02-19T14:50:52;12.90;99.90
16040;DHT22;8124;48.634;8.120;2023-02-19T14:55:58;12.90;99.90
16040;DHT22;8124;48.634;8.120;2023-02-19T15:01:01;12.80;99.90
16040;DHT22;8124;48.634;8.120;2023-02-19T15:06:10;12.80;99.90
16040;DHT22;8124;48.634;8.120;2023-02-19T15:11:18;12.80;99.90
16040;DHT22;8124;48.634;8.120;2023-02-19T15:16:23;12.70;99.90
16040;DHT22;8124;48.634;8.120;2023-02-19T15:21:30;12.70;99.90
16040;DHT22;8124;48.634;8.120;2023-02-19T15:26:37;12.70;99.90
16040;DHT22;8124;48.634;8.120;2023-02-19T15:31:45;12.80;99.90
16040;DHT22;8124;48.634;8.120;2023-02-19T15:36:49;12.80;99.90
16040;DHT22;8124;48.634;8.120;2023-02-19T15:41:57;12.80;99.90
16040;DHT22;8124;48.634;8.120;2023-02-19T15:47:07;12.70;99.90
16040;DHT22;8124;48.634;8.120;2023-02-19T15:52:18;12.90;99.90
16040;DHT22;8124;48.634;8.120;2023-02-19T15:57:29;12.70;99.90
16040;DHT22;8124;48.634;8.120;2023-02-19T16:02:33;12.60;99.90
16040;DHT22;8124;48.634;8.120;2023-02-19T16:07:37;12.70;99.90
16040;DHT22;8124;48.634;8.120;2023-02-19T16:12:42;12.60;99.90
16040;DHT22;8124;48.634;8.120;2023-02-19T16:17:45;12.60;99.90
16040;DHT22;8124;48.634;8.120;2023-02-19T16:22:48;12.40;99.90
16040;DHT22;8124;48.634;8.120;2023-02-19T16:27:52;12.70;99.90
16040;DHT22;8124;48.634;8.120;2023-02-19T16:38:36;12.70;99.90
16040;DHT22;8124;48.634;8.120;2023-02-19T16:43:42;12.70;99.90
16040;DHT22;8124;48.634;8.120;2023-02-19T16:48:45;12.60;99.90
16040;DHT22;8124;48.634;8.120;2023-02-19T16:53:48;12.60;99.90
16040;DHT22;8124;48.634;8.120;2023-02-19T16:58:52;12.70;99.90
16040;DHT22;8124;48.634;8.120;2023-02-19T17:03:58;12.60;99.90
16040;DHT22;8124;48.634;8.120;2023-02-19T17:09:02;12.60;99.90
16040;DHT22;8124;48.634;8.120;2023-02-19T17:14:06;12.70;99.90
16040;DHT22;8124;48.634;8.120;2023-02-19T17:19:11;12.70;99.90
16040;DHT22;8124;48.634;8.120;2023-02-19T17:24:15;12.70;99.90
16040;DHT22;8124;48.634;8.120;2023-02-19T17:29:19;12.70;99.90
16040;DHT22;8124;48.634;8.120;2023-02-19T17:34:22;12.60;99.90
16040;DHT22;8124;48.634;8.120;2023-02-19T17:39:25;12.70;99.90
16040;DHT22;8124;48.634;8.120;2023-02-19T17:44:30;12.70;99.90
16040;DHT22;8124;48.634;8.120;2023-02-19T17:49:33;12.70;99.90
16040;DHT22;8124;48.634;8.120;2023-02-19T17:54:36;12.60;99.90
16040;DHT22;8124;48.634;8.120;2023-02-19T17:59:41;12.70;99.90
16040;DHT22;8124;48.634;8.120;2023-02-19T18:04:44;12.70;99.90
16040;DHT22;8124;48.634;8.120;2023-02-19T18:09:46;12.50;99.90
16040;DHT22;8124;48.634;8.120;2023-02-19T18:14:51;12.60;99.90
16040;DHT22;8124;48.634;8.120;2023-02-19T18:19:55;12.50;99.90
16040;DHT22;8124;48.634;8.120;2023-02-19T18:24:58;12.50;99.90
16040;DHT22;8124;48.634;8.120;2023-02-19T18:30:03;12.50;99.90
16040;DHT22;8124;48.634;8.120;2023-02-19T18:35:07;12.40;99.90
16040;DHT22;8124;48.634;8.120;2023-02-19T18:40:10;12.20;99.90
16040;DHT22;8124;48.634;8.120;2023-02-19T18:45:15;12.20;99.90
16040;DHT22;8124;48.634;8.120;2023-02-19T18:50:19;12.30;99.90
16040;DHT22;8124;48.634;8.120;2023-02-19T18:55:22;12.40;99.90
16040;DHT22;8124;48.634;8.120;2023-02-19T19:00:26;12.40;99.90
16040;DHT22;8124;48.634;8.120;2023-02-19T19:05:29;12.50;99.90
16040;DHT22;8124;48.634;8.120;2023-02-19T19:10:32;12.50;99.90
16040;DHT22;8124;48.634;8.120;2023-02-19T19:15:36;12.40;99.90
16040;DHT22;8124;48.634;8.120;2023-02-19T19:20:42;12.30;99.90
16040;DHT22;8124;48.634;8.120;2023-02-19T19:25:44;12.30;99.90
16040;DHT22;8124;48.634;8.120;2023-02-19T19:30:49;12.30;99.90
16040;DHT22;8124;48.634;8.120;2023-02-19T19:35:52;12.30;99.90
16040;DHT22;8124;48.634;8.120;2023-02-19T19:40:54;12.20;99.90
16040;DHT22;8124;48.634;8.120;2023-02-19T19:45:59;12.20;99.90
16040;DHT22;8124;48.634;8.120;2023-02-19T19:51:02;12.30;99.90
16040;DHT22;8124;48.634;8.120;2023-02-19T19:56:05;12.30;99.90
16040;DHT22;8124;48.634;8.120;2023-02-19T20:01:10;12.20;99.90
16040;DHT22;8124;48.634;8.120;2023-02-19T20:06:13;12.30;99.90
16040;DHT22;8124;48.634;8.120;2023-02-19T20:11:16;12.20;99.90
16040;DHT22;8124;48.634;8.120;2023-02-19T20:16:24;12.30;99.90
16040;DHT22;8124;48.634;8.120;2023-02-19T20:21:27;12.40;99.90
16040;DHT22;8124;48.634;8.120;2023-02-19T20:26:31;12.20;99.90
16040;DHT22;8124;48.634;8.120;2023-02-19T20:31:35;12.30;99.90
16040;DHT22;8124;48.634;8.120;2023-02-19T20:36:41;12.20;99.90
16040;DHT22;8124;48.634;8.120;2023-02-19T20:41:45;12.20;99.90
16040;DHT22;8124;48.634;8.120;2023-02-19T20:46:50;12.20;99.90
16040;DHT22;8124;48.634;8.120;2023-02-19T20:51:55;12.10;99.90
16040;DHT22;8124;48.634;8.120;2023-02-19T20:57:05;12.00;99.90
16040;DHT22;8124;48.634;8.120;2023-02-19T21:02:20;12.00;99.90
16040;DHT22;8124;48.634;8.120;2023-02-19T21:07:25;12.20;99.90
16040;DHT22;8124;48.634;8.120;2023-02-19T21:12:28;12.30;99.90
16040;DHT22;8124;48.634;8.120;2023-02-19T21:17:32;12.10;99.90
16040;DHT22;8124;48.634;8.120;2023-02-19T21:22:35;12.20;99.90
16040;DHT22;8124;48.634;8.120;2023-02-19T21:27:38;12.10;99.90
16040;DHT22;8124;48.634;8.120;2023-02-19T21:32:42;12.00;99.90
16040;DHT22;8124;48.634;8.120;2023-02-19T21:37:45;12.00;99.90
16040;DHT22;8124;48.634;8.120;2023-02-19T21:42:48;12.00;99.90
16040;DHT22;8124;48.634;8.120;2023-02-19T21:47:52;12.00;99.90
16040;DHT22;8124;48.634;8.120;2023-02-19T21:52:55;12.10;99.90
16040;DHT22;8124;48.634;8.120;2023-02-19T21:57:58;12.00;99.90
16040;DHT22;8124;48.634;8.120;2023-02-19T22:03:02;12.10;99.90
16040;DHT22;8124;48.634;8.120;2023-02-19T22:08:05;12.00;99.90
16040;DHT22;8124;48.634;8.120;2023-02-19T22:13:09;12.10;99.90
16040;DHT22;8124;48.634;8.120;2023-02-19T22:18:13;12.00;99.90
16040;DHT22;8124;48.634;8.120;2023-02-19T22:23:16;12.00;99.90
16040;DHT22;8124;48.634;8.120;2023-02-19T22:28:19;12.00;99.90
16040;DHT22;8124;48.634;8.120;2023-02-19T22:33:23;12.10;99.90
16040;DHT22;8124;48.634;8.120;2023-02-19T22:38:26;12.00;99.90
16040;DHT22;8124;48.634;8.120;2023-02-19T22:43:29;12.00;99.90
16040;DHT22;8124;48.634;8.120;2023-02-19T22:48:33;12.00;99.90
16040;DHT22;8124;48.634;8.120;2023-02-19T22:53:36;11.90;99.90
16040;DHT22;8124;48.634;8.120;2023-02-19T22:58:39;12.00;99.90
16040;DHT22;8124;48.634;8.120;2023-02-19T23:03:49;12.00;99.90
16040;DHT22;8124;48.634;8.120;2023-02-19T23:08:52;12.10;99.90
16040;DHT22;8124;48.634;8.120;2023-02-19T23:13:56;11.90;99.90
16040;DHT22;8124;48.634;8.120;2023-02-19T23:19:00;11.90;99.90
16040;DHT22;8124;48.634;8.120;2023-02-19T23:24:04;11.90;99.90
16040;DHT22;8124;48.634;8.120;2023-02-19T23:29:07;11.90;99.90
16040;DHT22;8124;48.634;8.120;2023-02-19T23:34:13;11.80;99.90
16040;DHT22;8124;48.634;8.120;2023-02-19T23:39:18;11.80;99.90
16040;DHT22;8124;48.634;8.120;2023-02-19T23:44:22;11.70;99.90
16040;DHT22;8124;48.634;8.120;2023-02-19T23:49:27;11.60;99.90
16040;DHT22;8124;48.634;8.120;2023-02-19T23:54:29;11.60;99.90
16040;DHT22;8124;48.634;8.120;2023-02-19T23:59:32;11.60;99.90
